Time;durP1;ratioP1;P1;durP2;ratioP2;P2;SDS_P1;SDS_P2;PMS_P1;PMS_P2;Temp;Humidity;BMP_temperature;BMP_pressure;BME280_temperature;BME280_humidity;BME280_pressure;Samples;Min_cycle;Max_cycle;Signal;HPM_P1;HPM_P2
2022/12/20 00:01:35;;;;;;;14.15;8.63;;;;;;;-2.10;78.33;102516.84;1782003;79;21151;-77
2022/12/20 00:04:39;;;;;;;11.43;8.28;;;;;;;-2.00;78.20;102512.56;1786465;79;21195;-77
2022/12/20 00:07:46;;;;;;;12.93;9.08;;;;;;;-1.97;77.60;102516.05;1783798;79;21179;-77
2022/12/20 00:10:52;;;;;;;14.13;8.28;;;;;;;-1.94;77.67;102508.36;1794885;79;21162;-77
2022/12/20 00:13:59;;;;;;;13.22;8.95;;;;;;;-1.93;77.58;102500.30;1783656;79;21692;-77
2022/12/20 00:17:05;;;;;;;11.93;9.03;;;;;;;-1.93;77.60;102499.38;1792302;79;21198;-77
2022/12/20 00:20:11;;;;;;;13.78;8.88;;;;;;;-1.80;77.44;102498.13;1782795;79;21180;-76
2022/12/20 00:23:18;;;;;;;14.85;8.50;;;;;;;-2.00;77.87;102496.01;1781211;79;21135;-76
2022/12/20 00:26:25;;;;;;;13.85;8.85;;;;;;;-1.89;77.74;102497.92;1793100;79;21159;-77
2022/12/20 00:29:31;;;;;;;12.33;8.30;;;;;;;-1.82;77.29;102499.98;1789360;79;21755;-76
2022/12/20 00:32:37;;;;;;;13.13;8.48;;;;;;;-1.75;77.25;102493.50;1792031;79;21186;-77
2022/12/20 00:35:43;;;;;;;15.32;8.30;;;;;;;-1.68;77.10;102495.56;1774681;79;21169;-77
2022/12/20 00:38:51;;;;;;;14.30;8.68;;;;;;;-1.76;77.06;102485.51;1767513;79;21135;-76
2022/12/20 00:41:57;;;;;;;20.08;10.50;;;;;;;-1.86;76.98;102476.84;1776214;80;21168;-76
2022/12/20 00:45:04;;;;;;;15.28;10.13;;;;;;;-1.91;77.16;102478.31;1778054;79;21173;-76
2022/12/20 00:48:09;;;;;;;13.62;8.78;;;;;;;-1.90;76.91;102480.53;1773343;79;21161;-76
2022/12/20 00:51:18;;;;;;;16.00;10.53;;;;;;;-1.97;77.11;102481.65;1748323;81;21170;-76
2022/12/20 00:54:23;;;;;;;18.23;10.50;;;;;;;-2.09;77.53;102470.78;1792158;79;21143;-76
2022/12/20 00:57:29;;;;;;;14.35;9.13;;;;;;;-2.10;77.73;102462.33;1787078;79;21669;-76
2022/12/20 01:00:27;;;;;;;17.25;10.08;;;;;;;-2.02;77.54;102460.32;1771482;81;21136;-78
2022/12/20 01:03:33;;;;;;;15.23;9.53;;;;;;;-2.03;77.50;102453.64;1781311;80;21124;-76
2022/12/20 01:06:40;;;;;;;15.85;10.08;;;;;;;-2.06;77.97;102446.58;1777431;79;21183;-76
2022/12/20 01:09:47;;;;;;;18.15;10.45;;;;;;;-1.98;77.57;102451.23;1761354;80;21204;-75
2022/12/20 01:12:52;;;;;;;20.50;11.95;;;;;;;-2.15;77.76;102449.52;1775330;80;21125;-76
2022/12/20 01:15:57;;;;;;;21.93;13.88;;;;;;;-2.08;77.76;102447.06;1777451;79;21177;-77
2022/12/20 01:19:02;;;;;;;24.67;14.00;;;;;;;-2.12;77.69;102440.02;1773524;80;21153;-77
2022/12/20 01:22:07;;;;;;;22.60;14.07;;;;;;;-1.97;77.55;102446.78;1773864;80;21199;-77
2022/12/20 01:25:14;;;;;;;22.93;12.78;;;;;;;-1.94;77.52;102444.86;1780096;80;21739;-76
2022/12/20 01:28:19;;;;;;;18.17;11.08;;;;;;;-1.92;77.67;102436.33;1775952;80;21160;-76
2022/12/20 01:31:26;;;;;;;28.10;13.90;;;;;;;-1.76;77.43;102431.38;1757323;80;21164;-76
2022/12/20 01:34:32;;;;;;;26.80;12.60;;;;;;;-1.64;77.28;102428.80;1775449;79;21137;-77
2022/12/20 01:37:38;;;;;;;19.30;12.28;;;;;;;-1.54;77.04;102427.59;1777639;80;21705;-77
2022/12/20 01:40:47;;;;;;;21.35;13.28;;;;;;;-1.58;76.76;102441.56;1773974;79;21159;-76
2022/12/20 01:44:05;;;;;;;24.37;13.35;;;;;;;-1.60;77.05;102439.84;1746976;81;21514;-77
2022/12/20 01:47:10;;;;;;;22.93;14.47;;;;;;;-1.56;76.77;102424.06;1743689;81;21152;-76
2022/12/20 01:50:16;;;;;;;26.50;15.32;;;;;;;-1.64;76.70;102421.62;1731418;82;21179;-76
2022/12/20 01:53:21;;;;;;;27.22;16.82;;;;;;;-1.63;76.83;102421.16;1793950;79;21700;-76
2022/12/20 01:56:27;;;;;;;20.57;12.50;;;;;;;-1.54;77.14;102419.54;1793594;79;21183;-76
2022/12/20 01:59:27;;;;;;;17.75;11.95;;;;;;;-1.66;77.33;102419.91;1790214;79;21827;-76
2022/12/20 02:02:19;;;;;;;23.55;12.78;;;;;;;-1.62;77.18;102415.73;1791435;79;21135;-77
2022/12/20 02:05:28;;;;;;;17.10;11.03;;;;;;;-1.51;77.11;102415.40;1789579;79;21467;-76
2022/12/20 02:08:34;;;;;;;19.65;11.85;;;;;;;-1.52;76.69;102416.33;1765209;80;21139;-78
2022/12/20 02:12:11;;;;;;;19.90;11.93;;;;;;;-1.50;76.44;102404.23;1791758;79;21156;-78
2022/12/20 02:15:34;;;;;;;27.93;15.28;;;;;;;-1.50;76.52;102395.71;1763509;79;21225;-76
2022/12/20 02:18:51;;;;;;;23.32;13.45;;;;;;;-1.55;76.46;102389.61;1784800;79;21738;-75
2022/12/20 02:22:41;;;;;;;23.77;14.20;;;;;;;-1.52;76.29;102400.23;1786840;79;21189;-77
2022/12/20 02:26:21;;;;;;;21.77;14.45;;;;;;;-1.58;76.51;102399.09;1780775;79;21151;-77
2022/12/20 02:30:00;;;;;;;21.93;14.45;;;;;;;-1.57;76.48;102396.81;1781078;79;21165;-76
2022/12/20 02:33:11;;;;;;;21.37;13.93;;;;;;;-1.43;76.19;102396.37;1789395;79;21160;-76
2022/12/20 02:36:16;;;;;;;27.77;15.78;;;;;;;-1.40;75.97;102391.80;1772838;79;21194;-76
2022/12/20 02:39:23;;;;;;;24.35;14.25;;;;;;;-1.36;75.77;102395.27;1787580;79;21210;-77
2022/12/20 02:42:30;;;;;;;19.02;12.58;;;;;;;-1.44;76.24;102393.29;1775268;79;21854;-76
2022/12/20 02:45:38;;;;;;;18.48;10.45;;;;;;;-1.37;76.50;102398.39;1766122;79;21162;-76
2022/12/20 02:48:44;;;;;;;15.72;10.45;;;;;;;-1.39;76.49;102394.89;1770965;79;21127;-76
2022/12/20 02:51:51;;;;;;;16.30;8.60;;;;;;;-1.49;75.76;102387.19;1775462;79;21127;-77
2022/12/20 02:54:56;;;;;;;18.40;11.00;;;;;;;-1.63;75.24;102385.81;1771444;79;21154;-77
2022/12/20 02:58:12;;;;;;;15.30;10.28;;;;;;;-1.79;75.50;102384.51;1766801;79;21155;-77
2022/12/20 03:01:29;;;;;;;26.80;10.55;;;;;;;-1.93;75.94;102384.95;1778544;79;21166;-76
2022/12/20 03:04:36;;;;;;;18.05;11.15;;;;;;;-1.71;75.57;102385.63;1763727;79;21151;-76
2022/12/20 03:07:41;;;;;;;37.95;11.95;;;;;;;-1.79;75.80;102384.51;1775190;79;21146;-77
2022/12/20 03:10:49;;;;;;;18.30;12.05;;;;;;;-1.95;75.62;102385.44;1774708;79;21167;-77
2022/12/20 03:13:56;;;;;;;23.65;12.88;;;;;;;-2.12;76.46;102377.00;1771653;79;21210;-76
2022/12/20 03:17:01;;;;;;;23.57;11.93;;;;;;;-2.01;76.58;102381.61;1764083;79;21678;-78
2022/12/20 03:20:06;;;;;;;17.17;11.78;;;;;;;-1.84;76.03;102371.23;1756764;80;21144;-76
2022/12/20 03:23:11;;;;;;;14.35;9.98;;;;;;;-1.79;76.23;102371.09;1774330;79;21175;-77
2022/12/20 03:26:17;;;;;;;15.23;10.05;;;;;;;-1.82;76.44;102372.55;1761885;79;21170;-78
2022/12/20 03:29:23;;;;;;;14.63;9.83;;;;;;;-1.89;76.31;102379.01;1768214;79;21147;-77
2022/12/20 03:32:29;;;;;;;17.57;11.18;;;;;;;-1.98;76.35;102392.23;1754195;80;21139;-77
2022/12/20 03:35:36;;;;;;;19.52;10.32;;;;;;;-1.98;76.56;102392.23;1726695;81;21158;-77
2022/12/20 03:38:42;;;;;;;14.75;10.00;;;;;;;-1.93;76.41;102395.69;1796267;80;21212;-77
2022/12/20 03:41:48;;;;;;;14.05;9.35;;;;;;;-2.00;76.16;102394.09;1821641;78;21157;-76
2022/12/20 03:44:54;;;;;;;15.05;9.25;;;;;;;-2.33;76.33;102397.28;1823120;78;21777;-76
2022/12/20 03:47:58;;;;;;;14.80;9.58;;;;;;;-2.06;76.22;102407.22;1823234;78;21161;-76
2022/12/20 03:51:04;;;;;;;11.90;8.48;;;;;;;-2.10;75.70;102398.84;1823035;78;21177;-76
2022/12/20 03:54:11;;;;;;;21.52;8.68;;;;;;;-2.15;75.95;102390.06;1823180;78;21137;-76
2022/12/20 03:57:20;;;;;;;16.65;9.50;;;;;;;-2.28;75.67;102381.06;1823084;78;21719;-76
2022/12/20 04:00:27;;;;;;;15.80;9.63;;;;;;;-2.24;75.15;102384.95;1792285;78;21789;-76
2022/12/20 04:03:35;;;;;;;15.10;9.60;;;;;;;-2.47;75.68;102394.98;1820574;78;21730;-76
2022/12/20 04:06:40;;;;;;;12.95;8.45;;;;;;;-2.51;76.14;102391.09;1823035;78;21157;-77
2022/12/20 04:09:47;;;;;;;12.93;9.13;;;;;;;-2.52;76.17;102404.08;1823217;78;21177;-77
2022/12/20 04:12:52;;;;;;;15.70;10.70;;;;;;;-2.54;76.31;102410.83;1823210;78;21185;-77
2022/12/20 04:15:57;;;;;;;18.23;10.43;;;;;;;-2.65;76.27;102399.50;1823095;78;21193;-77
2022/12/20 04:19:04;;;;;;;17.90;11.25;;;;;;;-2.79;77.05;102404.34;1823149;78;21137;-76
2022/12/20 04:22:09;;;;;;;14.53;9.65;;;;;;;-2.74;77.36;102405.09;1823110;78;21213;-77
2022/12/20 04:25:18;;;;;;;11.55;6.97;;;;;;;-2.67;77.82;102405.38;1823198;78;21851;-77
2022/12/20 04:28:24;;;;;;;14.43;8.35;;;;;;;-2.66;77.87;102405.31;1823032;78;21164;-77
2022/12/20 04:31:25;;;;;;;11.88;8.18;;;;;;;-2.65;77.96;102388.31;1821740;78;21216;-77
2022/12/20 04:34:18;;;;;;;13.13;9.35;;;;;;;-2.59;78.01;102384.58;1823072;78;21146;-76
2022/12/20 04:37:04;;;;;;;14.80;9.38;;;;;;;-2.60;77.88;102388.19;1823083;78;21212;-76
2022/12/20 04:40:04;;;;;;;14.60;9.23;;;;;;;-2.63;78.00;102389.17;1816650;78;21223;-76
2022/12/20 04:43:11;;;;;;;15.45;9.65;;;;;;;-2.45;77.67;102399.83;1824579;78;21647;-77
2022/12/20 04:46:17;;;;;;;19.82;11.88;;;;;;;-2.48;77.34;102398.59;1822724;78;21196;-77
2022/12/20 04:49:23;;;;;;;19.85;10.93;;;;;;;-2.51;77.58;102393.77;1828040;77;21116;-82
2022/12/20 04:55:52;;;;;;;15.90;9.43;;;;;;;-2.34;77.10;102381.66;1832890;77;21226;-76
2022/12/20 04:58:59;;;;;;;16.05;10.40;;;;;;;-2.44;77.26;102389.55;1832399;78;21152;-75
2022/12/20 05:02:00;;;;;;;15.50;10.13;;;;;;;-2.37;76.89;102396.95;1833267;78;21192;-76
2022/12/20 05:04:54;;;;;;;15.85;9.80;;;;;;;-2.47;76.61;102396.33;1833886;77;21169;-82
2022/12/20 05:08:01;;;;;;;18.12;11.50;;;;;;;-2.50;76.86;102384.80;1834165;78;21145;-76
2022/12/20 05:11:08;;;;;;;20.00;11.22;;;;;;;-2.59;77.16;102388.17;1832923;77;21206;-83
2022/12/20 05:14:15;;;;;;;24.32;12.75;;;;;;;-2.52;77.05;102396.91;1833707;78;21172;-75
2022/12/20 05:17:20;;;;;;;25.45;14.47;;;;;;;-2.48;77.06;102398.59;1832371;78;21157;-76
2022/12/20 05:20:26;;;;;;;30.37;17.80;;;;;;;-2.59;77.35;102388.17;1832970;77;21203;-76
2022/12/20 05:26:58;;;;;;;41.50;23.57;;;;;;;-2.71;77.41;102398.33;1822655;79;21133;-77
2022/12/20 05:30:04;;;;;;;48.63;27.37;;;;;;;-2.70;77.14;102411.67;1822482;78;21192;-77
2022/12/20 05:33:11;;;;;;;48.87;26.23;;;;;;;-2.84;77.48;102411.16;1821560;79;21150;-77
2022/12/20 05:36:17;;;;;;;65.78;29.77;;;;;;;-2.89;77.78;102413.95;1821419;78;21189;-77
2022/12/20 05:39:22;;;;;;;45.63;25.50;;;;;;;-2.98;77.84;102398.11;1812266;77;21783;-77
2022/12/20 05:42:30;;;;;;;49.93;26.62;;;;;;;-3.07;78.29;102405.04;1797940;79;21170;-77
2022/12/20 05:45:37;;;;;;;44.53;25.95;;;;;;;-2.87;77.96;102413.91;1801397;79;21234;-77
2022/12/20 05:48:47;;;;;;;45.17;24.85;;;;;;;-2.80;77.86;102411.96;1802424;78;21751;-77
2022/12/20 05:51:46;;;;;;;51.98;25.77;;;;;;;-2.65;77.53;102411.09;1803306;78;21172;-77
2022/12/20 05:54:40;;;;;;;51.25;27.07;;;;;;;-2.59;77.51;102404.25;1802319;78;21760;-76
2022/12/20 05:57:47;;;;;;;58.65;26.75;;;;;;;-2.43;77.68;102410.06;1802017;79;21227;-75
2022/12/20 06:00:56;;;;;;;46.48;22.77;;;;;;;-2.24;77.00;102413.58;1801975;78;21303;-76
2022/12/20 06:04:01;;;;;;;26.15;14.03;;;;;;;-2.32;76.76;102410.63;1801261;79;21224;-76
2022/12/20 06:07:10;;;;;;;31.15;17.17;;;;;;;-2.31;76.47;102414.19;1800135;78;21170;-76
2022/12/20 06:10:18;;;;;;;32.48;17.37;;;;;;;-2.52;76.68;102414.33;1813168;78;21216;-77
2022/12/20 06:13:24;;;;;;;28.35;15.20;;;;;;;-2.54;77.50;102405.90;1799009;78;21176;-75
2022/12/20 06:16:31;;;;;;;30.72;18.05;;;;;;;-2.49;77.26;102413.34;1813606;78;21198;-75
2022/12/20 06:19:42;;;;;;;43.50;19.62;;;;;;;-2.51;77.06;102414.74;1802898;78;21779;-76
2022/12/20 06:22:49;;;;;;;24.85;14.25;;;;;;;-2.61;77.38;102410.09;1802576;78;21188;-76
2022/12/20 06:25:58;;;;;;;26.48;14.35;;;;;;;-2.54;77.37;102393.41;1811450;78;21139;-78
2022/12/20 06:29:09;;;;;;;25.90;12.55;;;;;;;-2.53;77.18;102386.25;1803765;78;21179;-78
2022/12/20 06:32:16;;;;;;;27.07;13.45;;;;;;;-2.47;76.70;102382.05;1791624;78;94645;-77
2022/12/20 06:35:22;;;;;;;25.70;13.53;;;;;;;-2.48;76.87;102378.95;1761277;80;21165;-76
2022/12/20 06:38:27;;;;;;;23.65;13.65;;;;;;;-2.46;77.14;102381.12;1760239;80;21192;-76
2022/12/20 06:41:33;;;;;;;24.57;13.58;;;;;;;-2.63;77.34;102371.76;1761888;80;21179;-76
2022/12/20 06:44:39;;;;;;;25.37;13.53;;;;;;;-2.70;77.56;102375.51;1749509;80;21213;-77
2022/12/20 06:47:44;;;;;;;25.05;13.60;;;;;;;-2.64;77.47;102383.83;1750622;80;21153;-77
2022/12/20 06:50:52;;;;;;;29.30;16.40;;;;;;;-2.64;77.98;102382.03;1695792;83;21191;-77
2022/12/20 06:54:02;;;;;;;21.35;11.93;;;;;;;-2.55;77.96;102379.56;1709599;81;21201;-77
2022/12/20 06:57:09;;;;;;;21.87;12.23;;;;;;;-2.63;78.10;102374.90;1726825;82;21165;-83
2022/12/20 07:00:16;;;;;;;18.52;11.08;;;;;;;-2.57;77.53;102378.74;1715870;82;21203;-83
2022/12/20 07:03:21;;;;;;;20.88;11.97;;;;;;;-2.54;77.86;102385.38;1703201;83;21159;-83
2022/12/20 07:06:28;;;;;;;46.75;21.37;;;;;;;-2.62;77.58;102379.33;1746975;80;21201;-83
2022/12/20 07:09:27;;;;;;;39.03;18.73;;;;;;;-2.66;77.40;102372.30;1750342;80;21257;-83
2022/12/20 07:12:25;;;;;;;22.50;13.83;;;;;;;-2.71;77.85;102375.56;1741222;80;21201;-83
2022/12/20 07:15:31;;;;;;;21.40;12.80;;;;;;;-2.66;78.22;102366.47;1699374;82;21765;-82
2022/12/20 07:18:37;;;;;;;22.07;13.20;;;;;;;-2.51;78.36;102358.93;1750943;80;21788;-81
2022/12/20 07:21:42;;;;;;;20.17;12.35;;;;;;;-2.28;77.91;102364.98;1740969;80;21170;-81
2022/12/20 07:24:49;;;;;;;24.12;14.13;;;;;;;-2.24;77.72;102368.00;1748638;80;21706;-82
2022/12/20 07:27:55;;;;;;;21.42;12.75;;;;;;;-2.23;77.86;102367.94;1751211;80;21227;-81
2022/12/20 07:31:01;;;;;;;17.98;11.18;;;;;;;-2.18;77.55;102373.17;1752659;80;21735;-81
2022/12/20 07:34:08;;;;;;;24.67;13.72;;;;;;;-2.23;77.25;102365.73;1742461;80;40818;-81
2022/12/20 07:37:13;;;;;;;19.23;12.45;;;;;;;-2.26;77.26;102361.78;1707458;82;21175;-82
2022/12/20 07:40:20;;;;;;;22.22;13.28;;;;;;;-2.14;77.62;102369.48;1717075;83;21740;-83
2022/12/20 07:43:27;;;;;;;26.90;13.38;;;;;;;-2.09;77.46;102371.56;1720940;83;21223;-81
2022/12/20 07:46:32;;;;;;;30.08;16.35;;;;;;;-2.08;77.62;102367.48;1735994;81;21207;-82
2022/12/20 07:49:37;;;;;;;29.67;17.10;;;;;;;-2.06;77.42;102357.61;1773027;80;21833;-83
2022/12/20 07:52:44;;;;;;;23.38;14.60;;;;;;;-2.22;78.13;102363.45;1770109;80;21217;-84
2022/12/20 07:55:51;;;;;;;25.52;15.35;;;;;;;-2.18;78.70;102355.28;1764203;80;21194;-78
2022/12/20 07:58:57;;;;;;;31.37;18.73;;;;;;;-2.08;78.74;102369.30;1734618;81;21137;-78
2022/12/20 08:02:02;;;;;;;31.75;17.52;;;;;;;-2.02;78.79;102351.70;1735666;81;21165;-77
2022/12/20 08:05:08;;;;;;;25.35;15.15;;;;;;;-2.03;78.49;102354.41;1714075;81;21181;-77
2022/12/20 08:08:13;;;;;;;31.00;17.10;;;;;;;-2.16;78.85;102360.62;1737626;81;21132;-78
2022/12/20 08:11:19;;;;;;;32.95;17.98;;;;;;;-2.06;78.45;102348.69;1734401;82;21206;-77
2022/12/20 08:14:24;;;;;;;32.85;18.32;;;;;;;-2.22;78.52;102347.38;1731795;81;21583;-77
2022/12/20 08:17:29;;;;;;;30.55;17.48;;;;;;;-2.21;79.18;102338.39;1730698;81;21478;-77
2022/12/20 08:20:37;;;;;;;32.38;18.60;;;;;;;-2.13;79.21;102330.55;1729966;82;21229;-78
2022/12/20 08:23:42;;;;;;;28.50;14.25;;;;;;;-2.19;79.38;102336.57;1729772;81;21229;-76
2022/12/20 08:26:48;;;;;;;27.27;14.68;;;;;;;-2.08;79.15;102322.37;1706647;82;21179;-77
2022/12/20 08:29:53;;;;;;;26.27;15.25;;;;;;;-2.19;78.75;102328.53;1709218;82;21163;-77
2022/12/20 08:32:58;;;;;;;43.33;20.97;;;;;;;-2.16;79.13;102321.74;1709385;82;21187;-77
2022/12/20 08:36:10;;;;;;;34.38;17.37;;;;;;;-2.12;79.43;102322.03;1768904;80;38108;-82
2022/12/20 08:39:16;;;;;;;32.85;17.60;;;;;;;-1.94;79.73;102312.56;1762827;80;21252;-77
2022/12/20 08:42:22;;;;;;;27.35;15.00;;;;;;;-1.90;79.62;102307.05;1767044;80;21832;-77
2022/12/20 08:45:28;;;;;;;25.68;13.55;;;;;;;-1.89;79.87;102294.52;1767098;80;21206;-82
2022/12/20 08:48:32;;;;;;;25.17;15.28;;;;;;;-1.89;80.26;102295.39;1769871;80;21695;-82
2022/12/20 08:51:38;;;;;;;17.20;11.08;;;;;;;-1.64;80.75;102282.09;1765784;80;21222;-77
2022/12/20 08:54:45;;;;;;;22.07;12.50;;;;;;;-1.46;81.09;102280.57;1767716;80;21216;-77
2022/12/20 08:57:44;;;;;;;23.47;12.90;;;;;;;-1.15;80.58;102267.45;1770765;80;21233;-76
2022/12/20 09:00:53;;;;;;;21.12;12.60;;;;;;;-0.88;79.66;102269.17;1768885;80;21223;-82
2022/12/20 09:04:00;;;;;;;23.40;11.78;;;;;;;-1.06;79.59;102260.42;1768028;80;21748;-81
2022/12/20 09:07:06;;;;;;;18.12;10.78;;;;;;;-0.93;79.08;102248.31;1766624;80;21207;-82
2022/12/20 09:10:13;;;;;;;21.82;12.45;;;;;;;-1.08;78.76;102236.78;1772042;80;21215;-84
2022/12/20 09:13:20;;;;;;;22.07;13.50;;;;;;;-1.38;78.30;102233.34;1769975;80;21163;-82
2022/12/20 09:16:28;;;;;;;24.18;12.07;;;;;;;-0.86;77.50;102226.98;1770669;80;21179;-83
2022/12/20 09:19:34;;;;;;;24.27;14.70;;;;;;;-0.79;77.00;102213.75;1768526;80;21139;-82
2022/12/20 09:22:40;;;;;;;18.40;11.05;;;;;;;-0.75;77.12;102216.30;1770914;80;21822;-82
2022/12/20 09:25:47;;;;;;;22.58;13.35;;;;;;;-0.71;76.82;102216.13;1769255;80;21196;-83
2022/12/20 09:28:52;;;;;;;21.33;12.68;;;;;;;0.48;72.46;102208.67;1768482;80;21706;-82
2022/12/20 09:31:58;;;;;;;27.98;14.53;;;;;;;0.38;72.17;102206.44;1770627;80;21704;-82
2022/12/20 09:35:03;;;;;;;26.85;14.68;;;;;;;-0.29;73.25;102200.16;1774464;78;26422;-81
2022/12/20 09:38:12;;;;;;;24.72;15.43;;;;;;;-0.57;74.67;102190.08;1800630;78;21289;-82
2022/12/20 09:41:37;;;;;;;22.48;13.10;;;;;;;-0.74;75.41;102183.15;1796631;78;21209;-83
2022/12/20 09:44:45;;;;;;;23.22;12.68;;;;;;;-0.69;75.52;102167.72;1801936;78;21158;-82
2022/12/20 09:47:51;;;;;;;26.57;14.43;;;;;;;-0.68;75.22;102164.09;1800984;78;21791;-82
2022/12/20 09:51:35;;;;;;;25.27;14.65;;;;;;;-0.93;75.79;102161.00;1794395;79;21178;-82
2022/12/20 09:54:54;;;;;;;24.40;13.50;;;;;;;-0.86;75.43;102154.44;1797506;79;21757;-82
2022/12/20 09:58:39;;;;;;;27.17;13.50;;;;;;;-1.16;76.54;102141.70;1798643;79;21445;-82
2022/12/20 10:01:44;;;;;;;25.75;14.93;;;;;;;-1.08;76.93;102131.56;1801580;78;21140;-82
2022/12/20 10:04:51;;;;;;;26.65;15.70;;;;;;;-0.81;76.42;102116.18;1801165;78;21174;-82
2022/12/20 10:08:03;;;;;;;34.03;16.80;;;;;;;-0.55;76.06;102107.58;1802025;78;21122;-82
2022/12/20 10:11:51;;;;;;;24.57;14.50;;;;;;;-0.44;75.84;102101.77;1797899;78;21193;-77
2022/12/20 10:15:25;;;;;;;39.65;25.88;;;;;;;-0.32;76.02;102091.86;1794313;78;21183;-77
2022/12/20 10:18:41;;;;;;;24.18;13.80;;;;;;;-0.21;75.96;102086.91;1797270;78;21167;-82
2022/12/20 10:22:16;;;;;;;38.00;20.40;;;;;;;-0.26;75.78;102080.84;1796427;78;22032;-83
2022/12/20 10:25:32;;;;;;;28.17;16.10;;;;;;;-0.49;75.76;102078.22;1793414;78;21143;-83
2022/12/20 10:28:40;;;;;;;37.23;21.73;;;;;;;-0.63;75.02;102074.75;1796329;78;21162;-78
2022/12/20 10:31:47;;;;;;;33.73;18.85;;;;;;;-0.83;74.71;102074.20;1771142;80;21620;-77
2022/12/20 10:35:03;;;;;;;29.52;17.55;;;;;;;-0.86;74.64;102068.47;1736345;81;21247;-83
2022/12/20 10:38:17;;;;;;;31.65;17.15;;;;;;;-0.73;75.15;102062.62;1776683;78;21697;-81
2022/12/20 10:41:26;;;;;;;27.95;16.85;;;;;;;-0.80;75.76;102058.84;1795621;78;21214;-81
2022/12/20 10:44:33;;;;;;;28.65;16.17;;;;;;;-0.68;75.92;102048.05;1798570;78;21190;-82
2022/12/20 10:47:48;;;;;;;31.55;18.07;;;;;;;-0.67;76.41;102036.83;1795688;78;21195;-82
2022/12/20 10:51:15;;;;;;;34.08;20.17;;;;;;;-0.58;75.61;102040.02;1795896;78;21659;-81
2022/12/20 10:54:44;;;;;;;35.75;19.55;;;;;;;-0.73;75.58;102029.03;1807472;78;21151;-81
2022/12/20 10:57:51;;;;;;;38.70;21.12;;;;;;;-0.60;75.61;102011.47;1784286;78;21177;-81
2022/12/20 11:00:57;;;;;;;42.43;21.35;;;;;;;-0.55;76.03;102009.47;1797714;78;21218;-76
2022/12/20 11:04:16;;;;;;;45.23;21.68;;;;;;;-0.43;76.18;102011.62;1802952;78;21135;-76
2022/12/20 11:07:34;;;;;;;46.13;23.45;;;;;;;-0.12;75.50;102000.91;1795001;78;21791;-77
2022/12/20 11:10:42;;;;;;;43.52;21.87;;;;;;;0.15;74.93;102005.56;1735319;81;21209;-77
2022/12/20 11:13:52;;;;;;;39.20;21.73;;;;;;;0.44;74.35;102009.63;1799521;78;21312;-77
2022/12/20 11:17:04;;;;;;;44.50;24.52;;;;;;;0.67;73.54;102005.88;1793370;79;21289;-82
2022/12/20 11:20:42;;;;;;;44.75;23.70;;;;;;;0.92;72.34;102002.41;1792760;78;21217;-84
2022/12/20 11:23:49;;;;;;;53.98;27.00;;;;;;;1.08;71.79;102003.02;1797042;79;21511;-77
2022/12/20 11:27:36;;;;;;;47.65;25.37;;;;;;;1.10;72.15;102006.05;1767027;79;21255;-76
2022/12/20 11:31:03;;;;;;;48.48;26.73;;;;;;;1.21;72.20;102002.34;1785646;79;21209;-76
2022/12/20 11:34:39;;;;;;;50.17;27.48;;;;;;;1.57;71.08;101996.56;1795925;78;21189;-77
2022/12/20 11:38:18;;;;;;;54.33;28.60;;;;;;;1.44;71.80;101992.25;1795126;79;21121;-77
2022/12/20 11:41:51;;;;;;;56.10;30.25;;;;;;;1.77;71.42;101984.27;1797814;78;21178;-77
2022/12/20 11:45:01;;;;;;;59.80;31.17;;;;;;;1.65;72.07;101982.22;1790504;78;21166;-77
2022/12/20 11:48:31;;;;;;;65.15;31.35;;;;;;;1.62;72.84;101972.45;1794803;78;21707;-77
2022/12/20 11:51:58;;;;;;;50.60;27.32;;;;;;;1.83;72.87;101963.70;1800944;78;21184;-77
2022/12/20 11:55:23;;;;;;;48.87;26.80;;;;;;;1.77;72.46;101963.55;1799301;78;21763;-78
2022/12/20 11:59:02;;;;;;;42.20;22.20;;;;;;;1.75;72.33;101961.91;1799541;78;21151;-77
2022/12/20 12:02:43;;;;;;;34.95;18.32;;;;;;;1.59;72.60;101960.94;1797989;78;21141;-77
2022/12/20 12:06:00;;;;;;;37.85;21.12;;;;;;;1.35;73.31;101961.23;1774930;79;21203;-78
2022/12/20 12:09:23;;;;;;;47.62;23.12;;;;;;;1.38;73.05;101958.39;1771082;79;21714;-76
2022/12/20 12:12:45;;;;;;;46.30;25.37;;;;;;;1.49;72.86;101957.36;1772880;80;21144;-76
2022/12/20 12:16:05;;;;;;;49.30;26.60;;;;;;;1.41;72.48;101954.64;1776157;80;21659;-78
2022/12/20 12:19:14;;;;;;;38.08;22.25;;;;;;;1.59;71.38;101955.54;1777597;79;21136;-76
2022/12/20 12:22:25;;;;;;;37.45;19.02;;;;;;;1.61;71.04;101945.56;1804683;78;21206;-76
2022/12/20 12:25:31;;;;;;;31.48;19.10;;;;;;;1.79;70.08;101944.61;1802797;78;21134;-81
2022/12/20 12:28:36;;;;;;;33.33;19.67;;;;;;;1.76;69.66;101930.80;1798891;78;21163;-82
2022/12/20 12:32:01;;;;;;;32.10;18.80;;;;;;;1.65;69.71;101933.67;1805025;78;21154;-82
2022/12/20 12:35:38;;;;;;;31.80;17.80;;;;;;;1.91;69.13;101935.85;1803510;78;21206;-81
2022/12/20 12:39:05;;;;;;;28.87;16.27;;;;;;;1.73;69.83;101923.33;1802528;78;21662;-81
2022/12/20 12:42:35;;;;;;;27.05;15.88;;;;;;;1.61;70.60;101910.02;1806043;78;21166;-81
2022/12/20 12:46:00;;;;;;;33.58;17.85;;;;;;;1.59;70.87;101899.77;1804712;78;21146;-81
2022/12/20 12:49:13;;;;;;;37.13;20.70;;;;;;;1.62;70.33;101892.01;1794969;79;21127;-82
2022/12/20 12:52:33;;;;;;;41.85;23.47;;;;;;;2.54;67.83;101888.77;1752421;79;21757;-82
2022/12/20 12:55:51;;;;;;;39.40;22.85;;;;;;;1.88;68.78;101885.21;1742734;81;21147;-82
2022/12/20 12:59:31;;;;;;;30.72;18.67;;;;;;;1.86;69.35;101877.21;1768648;80;21165;-82
2022/12/20 13:02:40;;;;;;;40.05;21.42;;;;;;;1.84;69.71;101882.31;1773716;79;21120;-77
2022/12/20 13:05:45;;;;;;;;;;;;;;;1.43;70.50;101879.48;1769578;79;21500;-77
2022/12/20 13:09:15;;;;;;;41.15;21.77;;;;;;;1.33;70.90;101882.73;1769753;79;20186;-81
2022/12/20 13:12:47;;;;;;;39.35;22.00;;;;;;;1.33;71.05;101874.17;1766519;80;21152;-81
2022/12/20 13:15:57;;;;;;;38.92;22.60;;;;;;;1.13;71.32;101866.20;1765635;79;21207;-82
2022/12/20 13:19:07;;;;;;;41.50;22.85;;;;;;;1.18;71.72;101865.53;1773357;80;21172;-82
2022/12/20 13:22:25;;;;;;;43.02;23.67;;;;;;;1.18;71.67;101860.14;1773375;79;21194;-82
2022/12/20 13:25:36;;;;;;;46.55;23.55;;;;;;;1.14;71.85;101854.02;1771684;79;21745;-82
2022/12/20 13:28:49;;;;;;;51.42;26.10;;;;;;;1.20;71.91;101842.05;1772487;79;21797;-82
2022/12/20 13:31:55;;;;;;;46.95;24.82;;;;;;;1.05;71.60;101836.97;1770812;80;21152;-82
2022/12/20 13:35:02;;;;;;;38.63;22.02;;;;;;;1.12;71.66;101839.73;1765621;80;21803;-82
2022/12/20 13:38:21;;;;;;;42.35;19.85;;;;;;;0.88;72.05;101832.90;1777834;79;21673;-84
2022/12/20 13:41:46;;;;;;;38.10;20.35;;;;;;;0.79;72.25;101838.27;1769841;80;21779;-82
2022/12/20 13:44:53;;;;;;;40.83;20.43;;;;;;;0.71;72.71;101833.28;1766590;80;21131;-82
2022/12/20 13:48:03;;;;;;;40.10;21.23;;;;;;;0.63;72.76;101824.70;1779845;80;21147;-83
2022/12/20 13:51:10;;;;;;;51.23;23.77;;;;;;;0.63;73.00;101823.36;1781862;79;21158;-84
2022/12/20 13:54:21;;;;;;;55.52;28.45;;;;;;;0.47;73.47;101821.00;1744974;81;21214;-77
2022/12/20 13:57:29;;;;;;;54.70;26.27;;;;;;;0.38;74.00;101823.70;1759204;81;21167;-77
2022/12/20 14:00:34;;;;;;;63.20;29.10;;;;;;;0.36;74.10;101813.45;1776760;80;21557;-77
2022/12/20 14:03:40;;;;;;;44.27;26.00;;;;;;;0.45;74.16;101813.01;1774577;80;21177;-77
2022/12/20 14:06:47;;;;;;;45.58;28.23;;;;;;;0.46;73.97;101808.49;1738731;81;21715;-77
2022/12/20 14:09:54;;;;;;;58.08;31.50;;;;;;;0.43;73.97;101804.62;1761390;80;21743;-77
2022/12/20 14:13:07;;;;;;;61.77;31.95;;;;;;;0.28;74.25;101808.03;1743693;81;21186;-77
2022/12/20 14:16:14;;;;;;;48.00;25.45;;;;;;;0.28;74.18;101798.14;1735908;82;21167;-77
2022/12/20 14:19:21;;;;;;;42.03;21.45;;;;;;;0.14;74.65;101789.41;1744795;81;21147;-77
2022/12/20 14:22:26;;;;;;;40.67;21.48;;;;;;;0.19;74.31;101781.99;1754912;81;21154;-77
2022/12/20 14:25:41;;;;;;;40.50;21.85;;;;;;;-0.07;74.91;101775.63;1759640;81;21818;-77
2022/12/20 14:28:54;;;;;;;36.20;18.40;;;;;;;-0.18;75.37;101766.73;1756648;81;21749;-77
2022/12/20 14:32:00;;;;;;;41.98;20.62;;;;;;;-0.26;75.52;101764.38;1736322;82;21768;-77
2022/12/20 14:35:06;;;;;;;35.55;18.80;;;;;;;-0.36;76.01;101755.48;1761954;81;21211;-77